Aérodrome :
LOGIN :

S'inscrire | Disclaimer

   EN    FR    IT 

 










Légende :    VFR   VFR Marginal   IFR   IFR Intensif   IFR Très Intensif
Visi : 
Plafond : 
>= 8 km
>= 3000ft
5 à 8 km
1000 à 3000 ft
1500m à 5 km
500 à 1000 ft
800 à 1500m
200 à 500 ft
< 800m
< 200 ft
Symboles :   Orages  Brouillard  Fortes neiges  Fortes précipitations  Vent > 20 kt
SIGMETs :   Divers  Orages  Givrage  Turbulence  Onde Orograph.  Cendres Volcan.







- Altitude de l'aérodrome : 17 ft
- Code IATA : GRQ


EHGG - Groningen Eelde

DERNIER METAR :
  • 230055Z AUTO 21003KT 9999 NCD 15/14 Q1021

METARs EXPIRÉS :
  • 230025Z AUTO 22002KT 9999 NCD 15/14 Q1021
  • 222355Z AUTO 21004KT 9999 NCD 15/14 Q1022
  • 222325Z AUTO 15003KT 090V230 9999 NCD 15/15 Q1022
  • 222255Z AUTO VRB02KT 9999 NCD 15/14 Q1022
  • 222225Z AUTO 20003KT 9999 NCD 16/15 Q1022

TAF TAF EHGG
Valide du 23 à 00h jusqu'au 24 à 06h UTC


222257Z 2300/2406 18005KT CAVOK
PROB30 2302/2305 6000
Pas de NOTAMs connus pour ce terrain.



MET'MAP, la Météo Aéronautique d'un coup d'oeil ! - Copyright ORBIFLY Décembre 2007 - Disclaimer

ORBIFLY MET'MAP TEAM :

Programmation & Développement : Alexandra Zaïnal
Conception & Développement : Baudouin d'Aumeries
Co-Programmation & Développement : Marc-Olivier Méhu
Soutien technique & logistique : Manuel Goepfert

Contact : metmap@orbifly.com




SOURCES & CREDITS :

   NOAA